Willow Beach, Arizona
Current Conditions -  °F | °C
As of 9:51 AM on Friday 28 Nov 2014 (Local Time) from KIGM Reporting Station
Clear Clear  
Wind Chill: 67°   Ceiling: Unl
Heat Index: 67°   Visibility: NA
Dew Point: 14°   Wind: 7mph
Humidity: 13%   Direction: 120°ESE
Pressure: 30.13"   Gusts: NA
Location:  35.19°N, 114.05°W
Report Text: KIGM 281651Z AUTO 12006KT CLR 19/M10 A3013 RMK AO2 SLP159 T01941100 $
Loading
Personal Weather Stations






























Interactive Weather Map New forecast layout! Learn more

10-Day Weather Forecast

Advertisements
Track Severe Weather on mobile